sensor_id;sensor_type;location;lat;lon;timestamp;P1;durP1;ratioP1;P2;durP2;ratioP2
10031;SDS011;5056;44.272;19.892;2023-05-19T00:01:33;12.55;;;10.05;;
10031;SDS011;5056;44.272;19.892;2023-05-19T00:04:01;10.65;;;9.55;;
10031;SDS011;5056;44.272;19.892;2023-05-19T00:06:31;10.30;;;9.27;;
10031;SDS011;5056;44.272;19.892;2023-05-19T00:09:02;11.15;;;9.95;;
10031;SDS011;5056;44.272;19.892;2023-05-19T00:11:30;11.50;;;10.27;;
10031;SDS011;5056;44.272;19.892;2023-05-19T00:14:00;12.23;;;10.93;;
10031;SDS011;5056;44.272;19.892;2023-05-19T00:16:29;11.32;;;10.05;;
10031;SDS011;5056;44.272;19.892;2023-05-19T00:18:56;11.83;;;10.63;;
10031;SDS011;5056;44.272;19.892;2023-05-19T00:21:31;11.23;;;10.23;;
10031;SDS011;5056;44.272;19.892;2023-05-19T00:23:58;10.27;;;9.27;;
10031;SDS011;5056;44.272;19.892;2023-05-19T00:26:26;9.87;;;8.87;;
10031;SDS011;5056;44.272;19.892;2023-05-19T00:28:53;8.93;;;8.13;;
10031;SDS011;5056;44.272;19.892;2023-05-19T00:31:20;10.50;;;9.40;;
10031;SDS011;5056;44.272;19.892;2023-05-19T00:33:47;9.63;;;8.63;;
10031;SDS011;5056;44.272;19.892;2023-05-19T00:36:14;9.80;;;8.80;;
10031;SDS011;5056;44.272;19.892;2023-05-19T00:38:49;9.80;;;8.80;;
10031;SDS011;5056;44.272;19.892;2023-05-19T00:41:16;9.93;;;8.93;;
10031;SDS011;5056;44.272;19.892;2023-05-19T00:43:44;9.33;;;8.43;;
10031;SDS011;5056;44.272;19.892;2023-05-19T00:46:18;10.30;;;9.30;;
10031;SDS011;5056;44.272;19.892;2023-05-19T00:48:45;10.33;;;9.13;;
10031;SDS011;5056;44.272;19.892;2023-05-19T00:51:21;10.02;;;9.02;;
10031;SDS011;5056;44.272;19.892;2023-05-19T00:53:50;9.47;;;8.57;;
10031;SDS011;5056;44.272;19.892;2023-05-19T00:56:17;10.63;;;9.53;;
10031;SDS011;5056;44.272;19.892;2023-05-19T00:58:46;9.67;;;8.67;;
10031;SDS011;5056;44.272;19.892;2023-05-19T01:01:13;9.23;;;8.33;;
10031;SDS011;5056;44.272;19.892;2023-05-19T01:03:41;11.27;;;8.95;;
10031;SDS011;5056;44.272;19.892;2023-05-19T01:06:09;10.53;;;9.30;;
10031;SDS011;5056;44.272;19.892;2023-05-19T01:08:37;10.30;;;9.30;;
10031;SDS011;5056;44.272;19.892;2023-05-19T01:11:07;9.83;;;8.63;;
10031;SDS011;5056;44.272;19.892;2023-05-19T01:13:34;10.20;;;9.17;;
10031;SDS011;5056;44.272;19.892;2023-05-19T01:16:03;10.80;;;9.67;;
10031;SDS011;5056;44.272;19.892;2023-05-19T01:18:40;10.30;;;9.37;;
10031;SDS011;5056;44.272;19.892;2023-05-19T01:21:19;10.93;;;9.77;;
10031;SDS011;5056;44.272;19.892;2023-05-19T01:24:12;10.50;;;9.50;;
10031;SDS011;5056;44.272;19.892;2023-05-19T01:27:08;9.45;;;8.55;;
10031;SDS011;5056;44.272;19.892;2023-05-19T01:29:41;10.17;;;8.87;;
10031;SDS011;5056;44.272;19.892;2023-05-19T01:32:20;11.87;;;10.67;;
10031;SDS011;5056;44.272;19.892;2023-05-19T01:34:48;11.67;;;10.33;;
10031;SDS011;5056;44.272;19.892;2023-05-19T01:37:19;12.00;;;10.70;;
10031;SDS011;5056;44.272;19.892;2023-05-19T01:39:47;10.87;;;9.87;;
10031;SDS011;5056;44.272;19.892;2023-05-19T01:42:14;10.63;;;9.53;;
10031;SDS011;5056;44.272;19.892;2023-05-19T01:44:45;9.43;;;8.63;;
10031;SDS011;5056;44.272;19.892;2023-05-19T01:47:25;11.37;;;10.17;;
10031;SDS011;5056;44.272;19.892;2023-05-19T01:49:54;10.87;;;9.87;;
10031;SDS011;5056;44.272;19.892;2023-05-19T01:52:21;11.50;;;10.40;;
10031;SDS011;5056;44.272;19.892;2023-05-19T01:54:48;11.57;;;10.47;;
10031;SDS011;5056;44.272;19.892;2023-05-19T01:57:18;11.17;;;10.07;;
10031;SDS011;5056;44.272;19.892;2023-05-19T01:59:51;11.80;;;10.70;;
10031;SDS011;5056;44.272;19.892;2023-05-19T02:02:28;11.07;;;9.97;;
10031;SDS011;5056;44.272;19.892;2023-05-19T02:05:00;12.13;;;10.93;;
10031;SDS011;5056;44.272;19.892;2023-05-19T02:07:49;12.43;;;10.00;;
10031;SDS011;5056;44.272;19.892;2023-05-19T02:10:21;12.30;;;11.00;;
10031;SDS011;5056;44.272;19.892;2023-05-19T02:12:49;11.17;;;10.00;;
10031;SDS011;5056;44.272;19.892;2023-05-19T02:15:19;11.87;;;10.67;;
10031;SDS011;5056;44.272;19.892;2023-05-19T02:17:49;11.17;;;10.07;;
10031;SDS011;5056;44.272;19.892;2023-05-19T02:20:18;11.63;;;10.50;;
10031;SDS011;5056;44.272;19.892;2023-05-19T02:22:48;13.27;;;11.00;;
10031;SDS011;5056;44.272;19.892;2023-05-19T02:25:15;12.67;;;11.37;;
10031;SDS011;5056;44.272;19.892;2023-05-19T02:27:42;11.80;;;10.70;;
10031;SDS011;5056;44.272;19.892;2023-05-19T02:30:09;12.40;;;11.10;;
10031;SDS011;5056;44.272;19.892;2023-05-19T02:32:38;12.97;;;11.57;;
10031;SDS011;5056;44.272;19.892;2023-05-19T02:35:07;11.73;;;10.57;;
10031;SDS011;5056;44.272;19.892;2023-05-19T02:37:34;12.90;;;11.57;;
10031;SDS011;5056;44.272;19.892;2023-05-19T02:40:02;14.17;;;11.50;;
10031;SDS011;5056;44.272;19.892;2023-05-19T02:42:29;13.30;;;11.23;;
10031;SDS011;5056;44.272;19.892;2023-05-19T02:44:56;14.00;;;12.60;;
10031;SDS011;5056;44.272;19.892;2023-05-19T02:47:23;14.17;;;12.37;;
10031;SDS011;5056;44.272;19.892;2023-05-19T02:49:51;15.70;;;12.07;;
10031;SDS011;5056;44.272;19.892;2023-05-19T02:52:19;13.13;;;11.30;;
10031;SDS011;5056;44.272;19.892;2023-05-19T02:54:46;12.80;;;11.27;;
10031;SDS011;5056;44.272;19.892;2023-05-19T02:57:14;11.80;;;10.63;;
10031;SDS011;5056;44.272;19.892;2023-05-19T02:59:42;12.33;;;11.03;;
10031;SDS011;5056;44.272;19.892;2023-05-19T03:02:09;11.40;;;10.20;;
10031;SDS011;5056;44.272;19.892;2023-05-19T03:04:36;12.30;;;11.03;;
10031;SDS011;5056;44.272;19.892;2023-05-19T03:07:06;12.20;;;11.07;;
10031;SDS011;5056;44.272;19.892;2023-05-19T03:09:40;13.70;;;11.20;;
10031;SDS011;5056;44.272;19.892;2023-05-19T03:12:07;12.03;;;10.63;;
10031;SDS011;5056;44.272;19.892;2023-05-19T03:14:36;12.00;;;10.80;;
10031;SDS011;5056;44.272;19.892;2023-05-19T03:17:03;11.60;;;10.43;;
10031;SDS011;5056;44.272;19.892;2023-05-19T03:19:34;12.73;;;11.40;;
10031;SDS011;5056;44.272;19.892;2023-05-19T03:22:01;13.23;;;11.60;;
10031;SDS011;5056;44.272;19.892;2023-05-19T03:24:29;13.27;;;11.97;;
10031;SDS011;5056;44.272;19.892;2023-05-19T03:26:59;12.17;;;10.97;;
10031;SDS011;5056;44.272;19.892;2023-05-19T03:29:26;12.57;;;10.87;;
10031;SDS011;5056;44.272;19.892;2023-05-19T03:31:55;12.50;;;11.27;;
10031;SDS011;5056;44.272;19.892;2023-05-19T03:34:24;14.83;;;13.10;;
10031;SDS011;5056;44.272;19.892;2023-05-19T03:36:59;15.07;;;12.27;;
10031;SDS011;5056;44.272;19.892;2023-05-19T03:39:26;12.77;;;11.50;;
10031;SDS011;5056;44.272;19.892;2023-05-19T03:41:53;12.60;;;11.50;;
10031;SDS011;5056;44.272;19.892;2023-05-19T03:44:21;12.43;;;11.33;;
10031;SDS011;5056;44.272;19.892;2023-05-19T03:46:48;12.33;;;11.10;;
10031;SDS011;5056;44.272;19.892;2023-05-19T03:49:17;11.57;;;10.43;;
10031;SDS011;5056;44.272;19.892;2023-05-19T03:51:44;12.10;;;10.90;;
10031;SDS011;5056;44.272;19.892;2023-05-19T03:54:11;12.27;;;11.10;;
10031;SDS011;5056;44.272;19.892;2023-05-19T03:56:47;11.30;;;10.30;;
10031;SDS011;5056;44.272;19.892;2023-05-19T03:59:16;11.93;;;10.73;;
10031;SDS011;5056;44.272;19.892;2023-05-19T04:01:45;12.33;;;11.17;;
10031;SDS011;5056;44.272;19.892;2023-05-19T04:04:12;12.87;;;11.57;;
10031;SDS011;5056;44.272;19.892;2023-05-19T04:06:42;11.53;;;10.50;;
10031;SDS011;5056;44.272;19.892;2023-05-19T04:09:10;12.03;;;10.07;;
10031;SDS011;5056;44.272;19.892;2023-05-19T04:11:44;11.87;;;10.67;;
10031;SDS011;5056;44.272;19.892;2023-05-19T04:14:14;12.70;;;11.40;;
10031;SDS011;5056;44.272;19.892;2023-05-19T04:16:47;12.43;;;11.00;;
10031;SDS011;5056;44.272;19.892;2023-05-19T04:19:27;13.13;;;11.77;;
10031;SDS011;5056;44.272;19.892;2023-05-19T04:21:55;13.73;;;12.47;;
10031;SDS011;5056;44.272;19.892;2023-05-19T04:24:22;13.57;;;12.40;;
10031;SDS011;5056;44.272;19.892;2023-05-19T04:26:50;13.83;;;12.23;;
10031;SDS011;5056;44.272;19.892;2023-05-19T04:29:17;13.37;;;11.97;;
10031;SDS011;5056;44.272;19.892;2023-05-19T04:31:44;14.70;;;13.18;;
10031;SDS011;5056;44.272;19.892;2023-05-19T04:37:09;15.17;;;13.50;;
10031;SDS011;5056;44.272;19.892;2023-05-19T04:39:40;14.13;;;12.70;;
10031;SDS011;5056;44.272;19.892;2023-05-19T04:45:31;14.63;;;13.13;;
10031;SDS011;5056;44.272;19.892;2023-05-19T04:48:01;14.00;;;12.57;;
10031;SDS011;5056;44.272;19.892;2023-05-19T04:50:30;13.30;;;12.00;;
10031;SDS011;5056;44.272;19.892;2023-05-19T04:52:58;14.30;;;12.85;;
10031;SDS011;5056;44.272;19.892;2023-05-19T04:55:25;13.30;;;12.00;;
10031;SDS011;5056;44.272;19.892;2023-05-19T04:57:52;13.00;;;11.80;;
10031;SDS011;5056;44.272;19.892;2023-05-19T05:00:19;12.90;;;11.70;;
10031;SDS011;5056;44.272;19.892;2023-05-19T05:02:47;13.97;;;12.37;;
10031;SDS011;5056;44.272;19.892;2023-05-19T05:05:14;13.27;;;12.05;;
10031;SDS011;5056;44.272;19.892;2023-05-19T05:07:43;12.52;;;11.38;;
10031;SDS011;5056;44.272;19.892;2023-05-19T05:10:10;11.87;;;10.77;;
10031;SDS011;5056;44.272;19.892;2023-05-19T05:12:37;12.65;;;11.45;;
10031;SDS011;5056;44.272;19.892;2023-05-19T05:15:05;12.43;;;11.18;;
10031;SDS011;5056;44.272;19.892;2023-05-19T05:17:36;13.63;;;11.88;;
10031;SDS011;5056;44.272;19.892;2023-05-19T05:20:04;13.15;;;11.75;;
10031;SDS011;5056;44.272;19.892;2023-05-19T05:22:32;12.35;;;11.07;;
10031;SDS011;5056;44.272;19.892;2023-05-19T05:25:03;11.30;;;10.18;;
10031;SDS011;5056;44.272;19.892;2023-05-19T05:27:30;11.68;;;10.68;;
10031;SDS011;5056;44.272;19.892;2023-05-19T05:29:58;10.75;;;9.70;;
10031;SDS011;5056;44.272;19.892;2023-05-19T05:32:25;11.93;;;10.82;;
10031;SDS011;5056;44.272;19.892;2023-05-19T05:34:52;11.15;;;10.05;;
10031;SDS011;5056;44.272;19.892;2023-05-19T05:37:20;11.85;;;10.65;;
10031;SDS011;5056;44.272;19.892;2023-05-19T05:39:47;10.70;;;9.23;;
10031;SDS011;5056;44.272;19.892;2023-05-19T05:42:16;11.48;;;10.48;;
10031;SDS011;5056;44.272;19.892;2023-05-19T05:44:44;10.95;;;9.93;;
10031;SDS011;5056;44.272;19.892;2023-05-19T05:47:11;9.73;;;8.93;;
10031;SDS011;5056;44.272;19.892;2023-05-19T05:49:39;10.60;;;9.65;;
10031;SDS011;5056;44.272;19.892;2023-05-19T05:52:09;9.85;;;8.90;;
10031;SDS011;5056;44.272;19.892;2023-05-19T05:54:37;9.93;;;8.93;;
10031;SDS011;5056;44.272;19.892;2023-05-19T05:57:05;9.80;;;8.95;;
10031;SDS011;5056;44.272;19.892;2023-05-19T05:59:35;9.43;;;8.52;;
10031;SDS011;5056;44.272;19.892;2023-05-19T06:02:02;10.25;;;9.25;;
10031;SDS011;5056;44.272;19.892;2023-05-19T06:04:31;10.65;;;9.65;;
10031;SDS011;5056;44.272;19.892;2023-05-19T06:06:58;10.55;;;9.60;;
10031;SDS011;5056;44.272;19.892;2023-05-19T06:09:26;9.80;;;8.80;;
10031;SDS011;5056;44.272;19.892;2023-05-19T06:11:55;11.18;;;10.10;;
10031;SDS011;5056;44.272;19.892;2023-05-19T06:14:23;11.07;;;8.95;;
10031;SDS011;5056;44.272;19.892;2023-05-19T06:16:52;10.63;;;9.63;;
10031;SDS011;5056;44.272;19.892;2023-05-19T06:19:19;11.57;;;10.35;;
10031;SDS011;5056;44.272;19.892;2023-05-19T06:21:46;12.43;;;9.70;;
10031;SDS011;5056;44.272;19.892;2023-05-19T06:24:14;10.88;;;9.88;;
10031;SDS011;5056;44.272;19.892;2023-05-19T06:26:41;10.35;;;9.45;;
10031;SDS011;5056;44.272;19.892;2023-05-19T06:32:00;11.27;;;10.18;;
10031;SDS011;5056;44.272;19.892;2023-05-19T06:34:26;10.95;;;9.85;;
10031;SDS011;5056;44.272;19.892;2023-05-19T06:36:53;11.20;;;9.65;;
10031;SDS011;5056;44.272;19.892;2023-05-19T06:39:20;10.38;;;9.48;;
10031;SDS011;5056;44.272;19.892;2023-05-19T06:41:49;13.38;;;12.07;;
10031;SDS011;5056;44.272;19.892;2023-05-19T06:44:16;11.57;;;10.43;;
10031;SDS011;5056;44.272;19.892;2023-05-19T06:46:43;12.38;;;11.18;;
10031;SDS011;5056;44.272;19.892;2023-05-19T06:49:12;11.05;;;9.98;;
10031;SDS011;5056;44.272;19.892;2023-05-19T06:51:38;13.77;;;12.07;;
10031;SDS011;5056;44.272;19.892;2023-05-19T06:54:06;13.63;;;12.23;;
10031;SDS011;5056;44.272;19.892;2023-05-19T06:59:56;11.85;;;10.75;;
10031;SDS011;5056;44.272;19.892;2023-05-19T07:02:23;11.82;;;10.82;;
10031;SDS011;5056;44.272;19.892;2023-05-19T07:04:53;12.32;;;11.05;;
10031;SDS011;5056;44.272;19.892;2023-05-19T07:07:21;12.88;;;11.60;;
10031;SDS011;5056;44.272;19.892;2023-05-19T07:09:48;14.18;;;12.68;;
10031;SDS011;5056;44.272;19.892;2023-05-19T07:12:16;13.23;;;12.02;;
10031;SDS011;5056;44.272;19.892;2023-05-19T07:14:43;16.63;;;13.52;;
10031;SDS011;5056;44.272;19.892;2023-05-19T07:17:11;14.63;;;13.30;;
10031;SDS011;5056;44.272;19.892;2023-05-19T07:22:36;15.30;;;13.90;;
10031;SDS011;5056;44.272;19.892;2023-05-19T07:25:04;14.52;;;13.13;;
10031;SDS011;5056;44.272;19.892;2023-05-19T07:27:31;13.38;;;12.18;;
10031;SDS011;5056;44.272;19.892;2023-05-19T07:29:58;13.82;;;12.50;;
10031;SDS011;5056;44.272;19.892;2023-05-19T07:32:28;13.70;;;12.38;;
10031;SDS011;5056;44.272;19.892;2023-05-19T07:34:55;12.95;;;11.65;;
10031;SDS011;5056;44.272;19.892;2023-05-19T07:37:23;13.32;;;10.88;;
10031;SDS011;5056;44.272;19.892;2023-05-19T07:39:52;13.40;;;10.95;;
10031;SDS011;5056;44.272;19.892;2023-05-19T07:42:19;11.65;;;10.52;;
10031;SDS011;5056;44.272;19.892;2023-05-19T07:44:46;11.75;;;10.60;;
10031;SDS011;5056;44.272;19.892;2023-05-19T07:47:14;13.75;;;11.57;;
10031;SDS011;5056;44.272;19.892;2023-05-19T07:49:40;12.57;;;10.20;;
10031;SDS011;5056;44.272;19.892;2023-05-19T07:52:08;10.00;;;9.10;;
10031;SDS011;5056;44.272;19.892;2023-05-19T07:54:35;11.85;;;10.65;;
10031;SDS011;5056;44.272;19.892;2023-05-19T07:57:08;10.82;;;9.73;;
10031;SDS011;5056;44.272;19.892;2023-05-19T07:59:35;14.35;;;11.90;;
10031;SDS011;5056;44.272;19.892;2023-05-19T08:02:03;17.48;;;11.00;;
10031;SDS011;5056;44.272;19.892;2023-05-19T08:04:30;13.15;;;9.77;;
10031;SDS011;5056;44.272;19.892;2023-05-19T08:06:57;10.93;;;9.90;;
10031;SDS011;5056;44.272;19.892;2023-05-19T08:09:26;17.13;;;12.48;;
10031;SDS011;5056;44.272;19.892;2023-05-19T08:11:55;14.35;;;11.55;;
10031;SDS011;5056;44.272;19.892;2023-05-19T08:14:25;12.15;;;10.95;;
10031;SDS011;5056;44.272;19.892;2023-05-19T08:16:52;15.05;;;12.02;;
10031;SDS011;5056;44.272;19.892;2023-05-19T08:19:19;15.98;;;11.45;;
10031;SDS011;5056;44.272;19.892;2023-05-19T08:21:58;16.58;;;11.95;;
10031;SDS011;5056;44.272;19.892;2023-05-19T08:24:25;14.55;;;11.23;;
10031;SDS011;5056;44.272;19.892;2023-05-19T08:26:54;14.00;;;11.30;;
10031;SDS011;5056;44.272;19.892;2023-05-19T08:29:21;13.98;;;11.45;;
10031;SDS011;5056;44.272;19.892;2023-05-19T08:31:53;14.10;;;12.15;;
10031;SDS011;5056;44.272;19.892;2023-05-19T08:34:22;22.27;;;13.25;;
10031;SDS011;5056;44.272;19.892;2023-05-19T08:36:49;14.07;;;11.52;;
10031;SDS011;5056;44.272;19.892;2023-05-19T08:39:25;16.63;;;13.05;;
10031;SDS011;5056;44.272;19.892;2023-05-19T08:41:52;12.48;;;11.18;;
10031;SDS011;5056;44.272;19.892;2023-05-19T08:44:20;12.98;;;11.60;;
10031;SDS011;5056;44.272;19.892;2023-05-19T08:46:48;14.48;;;12.63;;
10031;SDS011;5056;44.272;19.892;2023-05-19T08:49:20;15.85;;;11.63;;
10031;SDS011;5056;44.272;19.892;2023-05-19T08:51:50;12.73;;;11.45;;
10031;SDS011;5056;44.272;19.892;2023-05-19T08:54:23;18.35;;;11.75;;
10031;SDS011;5056;44.272;19.892;2023-05-19T08:56:51;15.60;;;12.13;;
10031;SDS011;5056;44.272;19.892;2023-05-19T08:59:21;12.68;;;11.13;;
10031;SDS011;5056;44.272;19.892;2023-05-19T09:01:49;12.35;;;11.15;;
10031;SDS011;5056;44.272;19.892;2023-05-19T09:04:20;14.02;;;12.55;;
10031;SDS011;5056;44.272;19.892;2023-05-19T09:06:49;15.10;;;11.60;;
10031;SDS011;5056;44.272;19.892;2023-05-19T09:09:16;18.48;;;14.80;;
10031;SDS011;5056;44.272;19.892;2023-05-19T09:11:44;16.08;;;13.73;;
10031;SDS011;5056;44.272;19.892;2023-05-19T09:14:15;14.70;;;13.07;;
10031;SDS011;5056;44.272;19.892;2023-05-19T09:16:44;15.52;;;13.25;;
10031;SDS011;5056;44.272;19.892;2023-05-19T09:19:17;16.15;;;13.80;;
10031;SDS011;5056;44.272;19.892;2023-05-19T09:21:49;17.13;;;15.40;;
10031;SDS011;5056;44.272;19.892;2023-05-19T09:24:25;17.17;;;14.30;;
10031;SDS011;5056;44.272;19.892;2023-05-19T09:26:54;18.95;;;15.68;;
10031;SDS011;5056;44.272;19.892;2023-05-19T09:29:22;16.95;;;15.10;;
10031;SDS011;5056;44.272;19.892;2023-05-19T09:31:50;17.77;;;15.65;;
10031;SDS011;5056;44.272;19.892;2023-05-19T09:34:18;23.98;;;16.67;;
10031;SDS011;5056;44.272;19.892;2023-05-19T09:36:48;20.27;;;15.73;;
10031;SDS011;5056;44.272;19.892;2023-05-19T09:39:17;18.83;;;16.65;;
10031;SDS011;5056;44.272;19.892;2023-05-19T09:41:45;18.80;;;15.80;;
10031;SDS011;5056;44.272;19.892;2023-05-19T09:44:21;19.27;;;16.00;;
10031;SDS011;5056;44.272;19.892;2023-05-19T09:46:48;21.95;;;17.25;;
10031;SDS011;5056;44.272;19.892;2023-05-19T09:49:19;26.75;;;16.75;;
10031;SDS011;5056;44.272;19.892;2023-05-19T09:51:52;21.00;;;15.82;;
10031;SDS011;5056;44.272;19.892;2023-05-19T09:54:19;20.08;;;16.90;;
10031;SDS011;5056;44.272;19.892;2023-05-19T09:56:55;25.55;;;18.42;;
10031;SDS011;5056;44.272;19.892;2023-05-19T09:59:24;20.80;;;17.48;;
10031;SDS011;5056;44.272;19.892;2023-05-19T10:01:53;21.55;;;17.45;;
10031;SDS011;5056;44.272;19.892;2023-05-19T10:04:22;17.63;;;15.77;;
10031;SDS011;5056;44.272;19.892;2023-05-19T10:06:51;26.00;;;18.70;;
10031;SDS011;5056;44.272;19.892;2023-05-19T10:09:20;20.60;;;17.02;;
10031;SDS011;5056;44.272;19.892;2023-05-19T10:11:49;22.05;;;16.92;;
10031;SDS011;5056;44.272;19.892;2023-05-19T10:14:28;22.55;;;17.42;;
10031;SDS011;5056;44.272;19.892;2023-05-19T10:16:56;19.77;;;16.88;;
10031;SDS011;5056;44.272;19.892;2023-05-19T10:19:24;20.95;;;17.05;;
10031;SDS011;5056;44.272;19.892;2023-05-19T10:21:56;17.98;;;16.25;;
10031;SDS011;5056;44.272;19.892;2023-05-19T10:24:25;20.25;;;18.15;;
10031;SDS011;5056;44.272;19.892;2023-05-19T10:26:59;18.67;;;16.95;;
10031;SDS011;5056;44.272;19.892;2023-05-19T10:29:31;19.92;;;18.00;;
10031;SDS011;5056;44.272;19.892;2023-05-19T10:32:03;20.70;;;18.27;;
10031;SDS011;5056;44.272;19.892;2023-05-19T10:34:39;20.83;;;18.63;;
10031;SDS011;5056;44.272;19.892;2023-05-19T10:37:36;20.13;;;18.13;;
10031;SDS011;5056;44.272;19.892;2023-05-19T10:40:11;21.70;;;19.52;;
10031;SDS011;5056;44.272;19.892;2023-05-19T10:42:48;21.10;;;18.83;;
10031;SDS011;5056;44.272;19.892;2023-05-19T10:45:26;20.42;;;17.80;;
10031;SDS011;5056;44.272;19.892;2023-05-19T10:47:54;19.83;;;17.83;;
10031;SDS011;5056;44.272;19.892;2023-05-19T10:50:23;19.75;;;17.75;;
10031;SDS011;5056;44.272;19.892;2023-05-19T10:52:53;19.25;;;17.30;;
10031;SDS011;5056;44.272;19.892;2023-05-19T10:58:10;18.45;;;16.65;;
10031;SDS011;5056;44.272;19.892;2023-05-19T11:00:38;19.40;;;17.30;;
10031;SDS011;5056;44.272;19.892;2023-05-19T11:03:18;19.35;;;17.55;;
10031;SDS011;5056;44.272;19.892;2023-05-19T11:05:48;16.63;;;15.05;;
10031;SDS011;5056;44.272;19.892;2023-05-19T11:08:31;18.17;;;16.27;;
10031;SDS011;5056;44.272;19.892;2023-05-19T11:11:11;18.10;;;16.35;;
10031;SDS011;5056;44.272;19.892;2023-05-19T11:13:39;17.90;;;16.15;;
10031;SDS011;5056;44.272;19.892;2023-05-19T11:16:09;18.63;;;16.98;;
10031;SDS011;5056;44.272;19.892;2023-05-19T11:18:38;19.75;;;17.73;;
10031;SDS011;5056;44.272;19.892;2023-05-19T11:21:05;19.30;;;16.67;;
10031;SDS011;5056;44.272;19.892;2023-05-19T11:23:42;20.48;;;18.42;;
10031;SDS011;5056;44.272;19.892;2023-05-19T11:26:10;18.92;;;16.92;;
10031;SDS011;5056;44.272;19.892;2023-05-19T11:28:39;18.10;;;16.40;;
10031;SDS011;5056;44.272;19.892;2023-05-19T11:31:07;18.77;;;16.98;;
10031;SDS011;5056;44.272;19.892;2023-05-19T11:33:36;18.23;;;15.77;;
10031;SDS011;5056;44.272;19.892;2023-05-19T11:36:05;18.67;;;16.90;;
10031;SDS011;5056;44.272;19.892;2023-05-19T11:38:33;18.65;;;16.65;;
10031;SDS011;5056;44.272;19.892;2023-05-19T11:41:05;18.30;;;15.73;;
10031;SDS011;5056;44.272;19.892;2023-05-19T11:43:33;19.52;;;17.63;;
10031;SDS011;5056;44.272;19.892;2023-05-19T11:46:01;17.83;;;16.05;;
10031;SDS011;5056;44.272;19.892;2023-05-19T11:48:29;19.05;;;17.25;;
10031;SDS011;5056;44.272;19.892;2023-05-19T11:50:58;19.67;;;17.63;;
10031;SDS011;5056;44.272;19.892;2023-05-19T11:53:28;20.45;;;17.45;;
10031;SDS011;5056;44.272;19.892;2023-05-19T11:55:56;20.35;;;18.40;;
10031;SDS011;5056;44.272;19.892;2023-05-19T11:58:33;18.50;;;16.60;;
10031;SDS011;5056;44.272;19.892;2023-05-19T12:01:02;18.98;;;17.17;;
10031;SDS011;5056;44.272;19.892;2023-05-19T12:03:30;18.10;;;16.45;;
10031;SDS011;5056;44.272;19.892;2023-05-19T12:05:57;20.05;;;18.08;;
10031;SDS011;5056;44.272;19.892;2023-05-19T12:08:24;18.60;;;16.92;;
10031;SDS011;5056;44.272;19.892;2023-05-19T12:10:55;18.38;;;16.50;;
10031;SDS011;5056;44.272;19.892;2023-05-19T12:13:22;19.15;;;17.35;;
10031;SDS011;5056;44.272;19.892;2023-05-19T12:15:51;18.40;;;16.58;;
10031;SDS011;5056;44.272;19.892;2023-05-19T12:18:18;18.13;;;16.20;;
10031;SDS011;5056;44.272;19.892;2023-05-19T12:20:47;20.52;;;16.30;;
10031;SDS011;5056;44.272;19.892;2023-05-19T12:23:14;19.67;;;17.65;;
10031;SDS011;5056;44.272;19.892;2023-05-19T12:25:41;19.35;;;17.52;;
10031;SDS011;5056;44.272;19.892;2023-05-19T12:28:09;20.17;;;18.13;;
10031;SDS011;5056;44.272;19.892;2023-05-19T12:30:36;20.00;;;18.00;;
10031;SDS011;5056;44.272;19.892;2023-05-19T12:33:07;20.33;;;18.42;;
10031;SDS011;5056;44.272;19.892;2023-05-19T12:35:36;19.55;;;17.73;;
10031;SDS011;5056;44.272;19.892;2023-05-19T12:38:03;21.67;;;19.63;;
10031;SDS011;5056;44.272;19.892;2023-05-19T12:40:31;20.42;;;18.52;;
10031;SDS011;5056;44.272;19.892;2023-05-19T12:42:59;22.20;;;19.95;;
10031;SDS011;5056;44.272;19.892;2023-05-19T12:45:26;21.02;;;19.08;;
10031;SDS011;5056;44.272;19.892;2023-05-19T12:47:54;21.13;;;19.02;;
10031;SDS011;5056;44.272;19.892;2023-05-19T12:50:28;23.00;;;20.10;;
10031;SDS011;5056;44.272;19.892;2023-05-19T12:52:58;23.65;;;21.25;;
10031;SDS011;5056;44.272;19.892;2023-05-19T12:55:25;21.33;;;18.98;;
10031;SDS011;5056;44.272;19.892;2023-05-19T12:57:52;21.15;;;18.98;;
10031;SDS011;5056;44.272;19.892;2023-05-19T13:00:22;18.90;;;17.10;;
10031;SDS011;5056;44.272;19.892;2023-05-19T13:02:53;21.05;;;19.15;;
10031;SDS011;5056;44.272;19.892;2023-05-19T13:05:25;22.08;;;20.02;;
10031;SDS011;5056;44.272;19.892;2023-05-19T13:07:53;20.10;;;17.90;;
10031;SDS011;5056;44.272;19.892;2023-05-19T13:10:21;22.75;;;20.38;;
10031;SDS011;5056;44.272;19.892;2023-05-19T13:12:51;22.88;;;20.52;;
10031;SDS011;5056;44.272;19.892;2023-05-19T13:15:18;23.73;;;21.45;;
10031;SDS011;5056;44.272;19.892;2023-05-19T13:17:46;24.10;;;21.40;;
10031;SDS011;5056;44.272;19.892;2023-05-19T13:20:12;24.65;;;22.40;;
10031;SDS011;5056;44.272;19.892;2023-05-19T13:22:41;22.63;;;20.58;;
10031;SDS011;5056;44.272;19.892;2023-05-19T13:25:10;25.45;;;23.08;;
10031;SDS011;5056;44.272;19.892;2023-05-19T13:27:37;24.73;;;22.45;;
10031;SDS011;5056;44.272;19.892;2023-05-19T13:30:05;24.15;;;22.15;;
10031;SDS011;5056;44.272;19.892;2023-05-19T13:32:34;23.13;;;20.92;;
10031;SDS011;5056;44.272;19.892;2023-05-19T13:35:04;24.67;;;22.45;;
10031;SDS011;5056;44.272;19.892;2023-05-19T13:37:33;26.15;;;23.83;;
10031;SDS011;5056;44.272;19.892;2023-05-19T13:40:06;24.42;;;22.23;;
10031;SDS011;5056;44.272;19.892;2023-05-19T13:42:34;25.38;;;22.90;;
10031;SDS011;5056;44.272;19.892;2023-05-19T13:45:02;25.50;;;22.98;;
10031;SDS011;5056;44.272;19.892;2023-05-19T13:50:28;22.90;;;20.80;;
10031;SDS011;5056;44.272;19.892;2023-05-19T13:52:58;26.08;;;23.42;;
10031;SDS011;5056;44.272;19.892;2023-05-19T13:55:27;27.55;;;24.67;;
10031;SDS011;5056;44.272;19.892;2023-05-19T13:57:54;26.92;;;24.63;;
10031;SDS011;5056;44.272;19.892;2023-05-19T14:00:21;27.23;;;24.73;;
10031;SDS011;5056;44.272;19.892;2023-05-19T14:02:48;27.67;;;25.13;;
10031;SDS011;5056;44.272;19.892;2023-05-19T14:05:16;25.63;;;23.05;;
10031;SDS011;5056;44.272;19.892;2023-05-19T14:07:46;27.38;;;24.67;;
10031;SDS011;5056;44.272;19.892;2023-05-19T14:12:52;28.77;;;26.05;;
10031;SDS011;5056;44.272;19.892;2023-05-19T14:15:23;29.20;;;26.25;;
10031;SDS011;5056;44.272;19.892;2023-05-19T14:17:51;26.92;;;24.50;;
10031;SDS011;5056;44.272;19.892;2023-05-19T14:20:18;25.83;;;23.23;;
10031;SDS011;5056;44.272;19.892;2023-05-19T14:22:45;25.50;;;22.83;;
10031;SDS011;5056;44.272;19.892;2023-05-19T14:25:13;30.60;;;27.70;;
10031;SDS011;5056;44.272;19.892;2023-05-19T14:27:40;28.30;;;25.88;;
10031;SDS011;5056;44.272;19.892;2023-05-19T14:30:12;28.92;;;26.17;;
10031;SDS011;5056;44.272;19.892;2023-05-19T14:32:39;30.08;;;27.00;;
10031;SDS011;5056;44.272;19.892;2023-05-19T14:35:06;29.65;;;26.90;;
10031;SDS011;5056;44.272;19.892;2023-05-19T14:37:36;30.33;;;27.25;;
10031;SDS011;5056;44.272;19.892;2023-05-19T14:40:04;30.67;;;27.92;;
10031;SDS011;5056;44.272;19.892;2023-05-19T14:42:33;31.40;;;28.40;;
10031;SDS011;5056;44.272;19.892;2023-05-19T14:45:00;30.30;;;27.27;;
10031;SDS011;5056;44.272;19.892;2023-05-19T14:47:30;30.75;;;27.77;;
10031;SDS011;5056;44.272;19.892;2023-05-19T14:49:56;32.40;;;29.48;;
10031;SDS011;5056;44.272;19.892;2023-05-19T14:52:24;30.50;;;27.98;;
10031;SDS011;5056;44.272;19.892;2023-05-19T14:54:52;34.88;;;31.83;;
10031;SDS011;5056;44.272;19.892;2023-05-19T14:57:21;32.83;;;29.63;;
10031;SDS011;5056;44.272;19.892;2023-05-19T14:59:49;31.98;;;29.08;;